Airfield :
LOGIN :

Register | Disclaimer

   EN    FR    IT 

 










Legend :    VFR   Marginal VFR   IFR   Intensive IFR   Very Intensive IFR
Visi :
Ceiling :
>= 8 km
>= 3000ft
5 to 8 km
1000 to 3000 ft
1500m to 5 km
500 to 1000 ft
800 to 1500m
200 to 500 ft
< 800m
< 200 ft
Symbols :   Thunderstorms  Fog  Heavy snow  Heavy precipitations  Wind > 20 kt
SIGMETs :     Misc.  Thunderstorms  Icing  Turbulence  Mountain Waves  Volcanic Ashes







- Airport Elevation : 322 ft


LHSN - Szolnok

CURRENT METAR :
  • 221015Z 34017G29KT CAVOK 19/04 Q1019 NOSIG RMK BLU

EXPIRED METARs :
  • 220945Z 33019G35KT 300V360 CAVOK 19/04 Q1019 NOSIG RMK BLU
  • 220915Z 33019G29KT CAVOK 20/04 Q1018 NOSIG RMK BLU
  • 220845Z 32016G33KT 290V350 9999 SCT045 BKN055 20/05 Q1018 NOSIG RMK BLU
  • 220815Z 32017G33KT 290V350 9999 SCT045 BKN055 BKN083 20/07 Q1017 NOSIG RMK BLU
  • 220745Z 31016KT 280V340 9999 SCT045 BKN055 BKN083 20/09 Q1017 NOSIG RMK BLU

TAF TAF LHSN
Valid from the 22 at 09:00 until the 22 at 18:00 UTC


220815Z 2209/2218 31015KT 9999 SCT040 BKN080
TEMPO 2209/2212 30012G23KT SCT045TCU BKN080
TEMPO 2211/2215 8000 RA SHRA SCT040TCU BKN080
BECMG 2212/2214 30008KT
BECMG 2215/2217 CAVOK
No reported NOTAMs for that airfield.
1 SIGMET reported for the Budapest FIR (LHCC) :
 
Embedded thunderstorms
LHCC SIGMET 02 VALID 221000/221100 LHBP
LHCC BUDAPEST FIR EMBD TS OBS E OF E02150 TOP FL340 MOV NE WKN=



MET'MAP, your aeronautical weather chart ! - Copyright ORBIFLY December 2007 - Disclaimer

ORBIFLY MET'MAP TEAM :

Programming & Development : Alexandra Zaïnal
Concept & Development : Baudouin d'Aumeries
Co-Development & Prog : Marc-Olivier Méhu
Technical & hardware support : Manuel Goepfert

Contact : metmap@orbifly.com




SOURCES & CREDITS :

   NOAA